sensor_id;sensor_type;location;lat;lon;timestamp;P1;durP1;ratioP1;P2;durP2;ratioP2
42036;SDS011;30340;52.004;5.908;2022-10-31T00:01:09;7.03;;;4.72;;
42036;SDS011;30340;52.004;5.908;2022-10-31T00:03:39;8.10;;;5.30;;
42036;SDS011;30340;52.004;5.908;2022-10-31T00:06:05;8.32;;;5.18;;
42036;SDS011;30340;52.004;5.908;2022-10-31T00:08:31;7.05;;;5.13;;
42036;SDS011;30340;52.004;5.908;2022-10-31T00:10:56;8.73;;;5.03;;
42036;SDS011;30340;52.004;5.908;2022-10-31T00:13:22;8.23;;;4.65;;
42036;SDS011;30340;52.004;5.908;2022-10-31T00:15:47;7.60;;;5.43;;
42036;SDS011;30340;52.004;5.908;2022-10-31T00:18:13;7.88;;;5.03;;
42036;SDS011;30340;52.004;5.908;2022-10-31T00:20:38;10.40;;;6.43;;
42036;SDS011;30340;52.004;5.908;2022-10-31T00:23:04;8.02;;;5.13;;
42036;SDS011;30340;52.004;5.908;2022-10-31T00:25:34;8.25;;;5.53;;
42036;SDS011;30340;52.004;5.908;2022-10-31T00:28:02;7.82;;;5.60;;
42036;SDS011;30340;52.004;5.908;2022-10-31T00:30:28;8.35;;;4.95;;
42036;SDS011;30340;52.004;5.908;2022-10-31T00:32:54;6.72;;;5.00;;
42036;SDS011;30340;52.004;5.908;2022-10-31T00:35:19;9.18;;;5.88;;
42036;SDS011;30340;52.004;5.908;2022-10-31T00:37:45;7.30;;;4.75;;
42036;SDS011;30340;52.004;5.908;2022-10-31T00:40:10;6.75;;;5.15;;
42036;SDS011;30340;52.004;5.908;2022-10-31T00:42:36;9.80;;;5.30;;
42036;SDS011;30340;52.004;5.908;2022-10-31T00:45:02;7.78;;;5.13;;
42036;SDS011;30340;52.004;5.908;2022-10-31T00:47:27;7.38;;;4.45;;
42036;SDS011;30340;52.004;5.908;2022-10-31T00:49:53;6.30;;;4.03;;
42036;SDS011;30340;52.004;5.908;2022-10-31T00:52:18;6.97;;;4.47;;
42036;SDS011;30340;52.004;5.908;2022-10-31T00:54:44;6.07;;;4.40;;
42036;SDS011;30340;52.004;5.908;2022-10-31T00:57:09;8.57;;;4.60;;
42036;SDS011;30340;52.004;5.908;2022-10-31T00:59:35;5.88;;;4.40;;
42036;SDS011;30340;52.004;5.908;2022-10-31T01:02:00;5.45;;;3.70;;
42036;SDS011;30340;52.004;5.908;2022-10-31T01:04:26;6.90;;;4.35;;
42036;SDS011;30340;52.004;5.908;2022-10-31T01:06:51;5.90;;;4.15;;
42036;SDS011;30340;52.004;5.908;2022-10-31T01:09:17;7.28;;;4.53;;
42036;SDS011;30340;52.004;5.908;2022-10-31T01:11:43;7.22;;;4.80;;
42036;SDS011;30340;52.004;5.908;2022-10-31T01:14:08;6.43;;;4.68;;
42036;SDS011;30340;52.004;5.908;2022-10-31T01:16:34;6.18;;;4.18;;
42036;SDS011;30340;52.004;5.908;2022-10-31T01:19:00;9.10;;;4.78;;
42036;SDS011;30340;52.004;5.908;2022-10-31T01:21:26;8.57;;;4.80;;
42036;SDS011;30340;52.004;5.908;2022-10-31T01:23:53;9.05;;;4.88;;
42036;SDS011;30340;52.004;5.908;2022-10-31T01:26:24;7.93;;;4.43;;
42036;SDS011;30340;52.004;5.908;2022-10-31T01:28:55;5.23;;;4.20;;
42036;SDS011;30340;52.004;5.908;2022-10-31T01:31:23;5.60;;;4.20;;
42036;SDS011;30340;52.004;5.908;2022-10-31T01:33:50;6.38;;;4.45;;
42036;SDS011;30340;52.004;5.908;2022-10-31T01:38:48;7.18;;;4.80;;
42036;SDS011;30340;52.004;5.908;2022-10-31T01:41:15;6.15;;;4.15;;
42036;SDS011;30340;52.004;5.908;2022-10-31T01:43:47;6.53;;;4.20;;
42036;SDS011;30340;52.004;5.908;2022-10-31T01:46:17;7.20;;;4.50;;
42036;SDS011;30340;52.004;5.908;2022-10-31T01:48:59;7.90;;;5.55;;
42036;SDS011;30340;52.004;5.908;2022-10-31T01:51:32;6.50;;;4.90;;
42036;SDS011;30340;52.004;5.908;2022-10-31T01:54:01;7.75;;;4.22;;
42036;SDS011;30340;52.004;5.908;2022-10-31T01:56:30;8.10;;;4.60;;
42036;SDS011;30340;52.004;5.908;2022-10-31T01:58:59;6.15;;;4.38;;
42036;SDS011;30340;52.004;5.908;2022-10-31T02:01:26;6.10;;;4.15;;
42036;SDS011;30340;52.004;5.908;2022-10-31T02:03:53;5.60;;;4.13;;
42036;SDS011;30340;52.004;5.908;2022-10-31T02:09:10;9.15;;;4.20;;
42036;SDS011;30340;52.004;5.908;2022-10-31T02:11:37;5.45;;;4.32;;
42036;SDS011;30340;52.004;5.908;2022-10-31T02:14:03;5.45;;;4.10;;
42036;SDS011;30340;52.004;5.908;2022-10-31T02:16:29;6.30;;;4.28;;
42036;SDS011;30340;52.004;5.908;2022-10-31T02:18:54;6.85;;;4.72;;
42036;SDS011;30340;52.004;5.908;2022-10-31T02:21:23;6.82;;;4.70;;
42036;SDS011;30340;52.004;5.908;2022-10-31T02:24:21;7.75;;;4.95;;
42036;SDS011;30340;52.004;5.908;2022-10-31T02:27:13;7.32;;;4.72;;
42036;SDS011;30340;52.004;5.908;2022-10-31T02:29:57;5.25;;;3.95;;
42036;SDS011;30340;52.004;5.908;2022-10-31T02:33:25;5.47;;;4.10;;
42036;SDS011;30340;52.004;5.908;2022-10-31T02:43:43;6.03;;;4.18;;
42036;SDS011;30340;52.004;5.908;2022-10-31T02:48:41;6.80;;;4.60;;
42036;SDS011;30340;52.004;5.908;2022-10-31T02:51:09;7.38;;;4.70;;
42036;SDS011;30340;52.004;5.908;2022-10-31T02:53:37;6.97;;;5.50;;
42036;SDS011;30340;52.004;5.908;2022-10-31T02:56:16;7.70;;;4.50;;
42036;SDS011;30340;52.004;5.908;2022-10-31T02:58:48;8.27;;;4.75;;
42036;SDS011;30340;52.004;5.908;2022-10-31T03:09:23;7.70;;;5.07;;
42036;SDS011;30340;52.004;5.908;2022-10-31T03:12:04;7.50;;;5.15;;
42036;SDS011;30340;52.004;5.908;2022-10-31T03:14:40;8.23;;;4.90;;
42036;SDS011;30340;52.004;5.908;2022-10-31T03:17:16;7.05;;;4.97;;
42036;SDS011;30340;52.004;5.908;2022-10-31T03:19:50;7.95;;;5.40;;
42036;SDS011;30340;52.004;5.908;2022-10-31T03:22:20;7.07;;;5.30;;
42036;SDS011;30340;52.004;5.908;2022-10-31T03:24:51;7.72;;;5.47;;
42036;SDS011;30340;52.004;5.908;2022-10-31T03:27:23;6.60;;;4.75;;
42036;SDS011;30340;52.004;5.908;2022-10-31T03:29:52;7.80;;;5.18;;
42036;SDS011;30340;52.004;5.908;2022-10-31T03:32:23;7.87;;;4.67;;
42036;SDS011;30340;52.004;5.908;2022-10-31T03:34:53;7.63;;;5.07;;
42036;SDS011;30340;52.004;5.908;2022-10-31T03:37:24;8.25;;;5.05;;
42036;SDS011;30340;52.004;5.908;2022-10-31T03:39:52;8.13;;;6.20;;
42036;SDS011;30340;52.004;5.908;2022-10-31T03:42:29;7.63;;;5.30;;
42036;SDS011;30340;52.004;5.908;2022-10-31T03:45:05;7.20;;;5.50;;
42036;SDS011;30340;52.004;5.908;2022-10-31T03:47:38;6.45;;;4.90;;
42036;SDS011;30340;52.004;5.908;2022-10-31T03:50:05;8.63;;;5.50;;
42036;SDS011;30340;52.004;5.908;2022-10-31T03:52:37;8.20;;;5.40;;
42036;SDS011;30340;52.004;5.908;2022-10-31T03:55:22;6.93;;;5.22;;
42036;SDS011;30340;52.004;5.908;2022-10-31T03:58:00;8.00;;;5.63;;
42036;SDS011;30340;52.004;5.908;2022-10-31T04:00:30;10.17;;;5.63;;
42036;SDS011;30340;52.004;5.908;2022-10-31T04:02:58;7.43;;;5.53;;
42036;SDS011;30340;52.004;5.908;2022-10-31T04:05:31;8.45;;;5.25;;
42036;SDS011;30340;52.004;5.908;2022-10-31T04:07:57;7.32;;;5.30;;
42036;SDS011;30340;52.004;5.908;2022-10-31T04:10:24;7.70;;;5.95;;
42036;SDS011;30340;52.004;5.908;2022-10-31T04:12:54;8.70;;;6.00;;
42036;SDS011;30340;52.004;5.908;2022-10-31T04:15:24;9.02;;;5.70;;
42036;SDS011;30340;52.004;5.908;2022-10-31T04:17:52;8.45;;;6.00;;
42036;SDS011;30340;52.004;5.908;2022-10-31T04:20:28;8.82;;;6.00;;
42036;SDS011;30340;52.004;5.908;2022-10-31T04:22:55;9.43;;;6.80;;
42036;SDS011;30340;52.004;5.908;2022-10-31T04:25:20;8.70;;;6.18;;
42036;SDS011;30340;52.004;5.908;2022-10-31T04:27:46;7.95;;;6.20;;
42036;SDS011;30340;52.004;5.908;2022-10-31T04:30:11;8.75;;;5.82;;
42036;SDS011;30340;52.004;5.908;2022-10-31T04:32:37;11.55;;;6.80;;
42036;SDS011;30340;52.004;5.908;2022-10-31T04:35:03;8.65;;;5.65;;
42036;SDS011;30340;52.004;5.908;2022-10-31T04:37:28;10.13;;;6.50;;
42036;SDS011;30340;52.004;5.908;2022-10-31T04:39:54;8.60;;;6.38;;
42036;SDS011;30340;52.004;5.908;2022-10-31T04:42:19;9.10;;;6.35;;
42036;SDS011;30340;52.004;5.908;2022-10-31T04:44:45;9.50;;;6.10;;
42036;SDS011;30340;52.004;5.908;2022-10-31T04:47:10;6.70;;;5.65;;
42036;SDS011;30340;52.004;5.908;2022-10-31T04:49:36;9.98;;;6.40;;
42036;SDS011;30340;52.004;5.908;2022-10-31T04:52:01;9.00;;;6.43;;
42036;SDS011;30340;52.004;5.908;2022-10-31T04:54:27;9.15;;;6.07;;
42036;SDS011;30340;52.004;5.908;2022-10-31T04:56:52;8.98;;;6.80;;
42036;SDS011;30340;52.004;5.908;2022-10-31T04:59:18;10.40;;;6.50;;
42036;SDS011;30340;52.004;5.908;2022-10-31T05:01:43;8.18;;;6.13;;
42036;SDS011;30340;52.004;5.908;2022-10-31T05:04:09;9.02;;;6.10;;
42036;SDS011;30340;52.004;5.908;2022-10-31T05:06:35;8.65;;;6.40;;
42036;SDS011;30340;52.004;5.908;2022-10-31T05:09:00;9.43;;;6.72;;
42036;SDS011;30340;52.004;5.908;2022-10-31T05:11:26;9.77;;;6.50;;
42036;SDS011;30340;52.004;5.908;2022-10-31T05:13:51;9.38;;;6.90;;
42036;SDS011;30340;52.004;5.908;2022-10-31T05:16:17;10.27;;;6.97;;
42036;SDS011;30340;52.004;5.908;2022-10-31T05:18:42;9.50;;;7.05;;
42036;SDS011;30340;52.004;5.908;2022-10-31T05:21:08;11.13;;;7.60;;
42036;SDS011;30340;52.004;5.908;2022-10-31T05:23:33;10.45;;;6.82;;
42036;SDS011;30340;52.004;5.908;2022-10-31T05:25:59;10.63;;;7.40;;
42036;SDS011;30340;52.004;5.908;2022-10-31T05:28:24;10.98;;;8.38;;
42036;SDS011;30340;52.004;5.908;2022-10-31T05:30:50;10.93;;;7.30;;
42036;SDS011;30340;52.004;5.908;2022-10-31T05:33:15;13.10;;;7.70;;
42036;SDS011;30340;52.004;5.908;2022-10-31T05:35:41;10.63;;;7.38;;
42036;SDS011;30340;52.004;5.908;2022-10-31T05:38:06;11.70;;;7.88;;
42036;SDS011;30340;52.004;5.908;2022-10-31T05:40:32;11.65;;;7.88;;
42036;SDS011;30340;52.004;5.908;2022-10-31T05:42:57;10.63;;;7.13;;
42036;SDS011;30340;52.004;5.908;2022-10-31T05:45:23;11.52;;;7.47;;
42036;SDS011;30340;52.004;5.908;2022-10-31T05:47:58;11.63;;;7.25;;
42036;SDS011;30340;52.004;5.908;2022-10-31T05:50:26;10.05;;;7.60;;
42036;SDS011;30340;52.004;5.908;2022-10-31T05:52:56;9.85;;;7.65;;
42036;SDS011;30340;52.004;5.908;2022-10-31T05:55:27;9.68;;;6.60;;
42036;SDS011;30340;52.004;5.908;2022-10-31T05:57:54;9.32;;;6.40;;
42036;SDS011;30340;52.004;5.908;2022-10-31T06:00:20;8.65;;;6.85;;
42036;SDS011;30340;52.004;5.908;2022-10-31T06:02:46;9.05;;;6.90;;
42036;SDS011;30340;52.004;5.908;2022-10-31T06:05:12;10.75;;;6.97;;
42036;SDS011;30340;52.004;5.908;2022-10-31T06:07:38;10.38;;;7.18;;
42036;SDS011;30340;52.004;5.908;2022-10-31T06:10:04;9.30;;;7.07;;
42036;SDS011;30340;52.004;5.908;2022-10-31T06:12:31;9.18;;;6.90;;
42036;SDS011;30340;52.004;5.908;2022-10-31T06:15:02;10.73;;;7.70;;
42036;SDS011;30340;52.004;5.908;2022-10-31T06:17:29;11.48;;;7.38;;
42036;SDS011;30340;52.004;5.908;2022-10-31T06:19:55;11.25;;;7.78;;
42036;SDS011;30340;52.004;5.908;2022-10-31T06:22:20;10.35;;;7.43;;
42036;SDS011;30340;52.004;5.908;2022-10-31T06:24:46;9.40;;;6.97;;
42036;SDS011;30340;52.004;5.908;2022-10-31T06:27:11;9.88;;;6.82;;
42036;SDS011;30340;52.004;5.908;2022-10-31T06:29:37;10.02;;;7.43;;
42036;SDS011;30340;52.004;5.908;2022-10-31T06:32:02;10.60;;;7.38;;
42036;SDS011;30340;52.004;5.908;2022-10-31T06:34:28;9.50;;;7.10;;
42036;SDS011;30340;52.004;5.908;2022-10-31T06:36:53;9.93;;;6.90;;
42036;SDS011;30340;52.004;5.908;2022-10-31T06:39:19;11.77;;;7.97;;
42036;SDS011;30340;52.004;5.908;2022-10-31T06:41:46;11.10;;;7.07;;
42036;SDS011;30340;52.004;5.908;2022-10-31T06:44:13;10.30;;;7.30;;
42036;SDS011;30340;52.004;5.908;2022-10-31T06:46:38;10.70;;;7.57;;
42036;SDS011;30340;52.004;5.908;2022-10-31T06:49:04;12.32;;;7.75;;
42036;SDS011;30340;52.004;5.908;2022-10-31T06:51:29;10.65;;;7.82;;
42036;SDS011;30340;52.004;5.908;2022-10-31T06:53:55;10.50;;;7.57;;
42036;SDS011;30340;52.004;5.908;2022-10-31T06:56:21;10.18;;;7.32;;
42036;SDS011;30340;52.004;5.908;2022-10-31T06:58:46;9.73;;;7.30;;
42036;SDS011;30340;52.004;5.908;2022-10-31T07:01:12;9.85;;;7.40;;
42036;SDS011;30340;52.004;5.908;2022-10-31T07:03:37;10.85;;;7.50;;
42036;SDS011;30340;52.004;5.908;2022-10-31T07:06:03;9.20;;;6.60;;
42036;SDS011;30340;52.004;5.908;2022-10-31T07:08:28;10.40;;;7.20;;
42036;SDS011;30340;52.004;5.908;2022-10-31T07:10:55;10.70;;;7.85;;
42036;SDS011;30340;52.004;5.908;2022-10-31T07:13:22;10.20;;;7.20;;
42036;SDS011;30340;52.004;5.908;2022-10-31T07:15:52;9.95;;;7.00;;
42036;SDS011;30340;52.004;5.908;2022-10-31T07:18:19;8.80;;;6.53;;
42036;SDS011;30340;52.004;5.908;2022-10-31T07:20:45;8.90;;;6.65;;
42036;SDS011;30340;52.004;5.908;2022-10-31T07:23:12;9.48;;;6.78;;
42036;SDS011;30340;52.004;5.908;2022-10-31T07:25:38;9.95;;;6.75;;
42036;SDS011;30340;52.004;5.908;2022-10-31T07:28:04;10.60;;;6.95;;
42036;SDS011;30340;52.004;5.908;2022-10-31T07:30:30;10.88;;;7.95;;
42036;SDS011;30340;52.004;5.908;2022-10-31T07:32:55;11.85;;;7.78;;
42036;SDS011;30340;52.004;5.908;2022-10-31T07:35:25;14.50;;;8.73;;
42036;SDS011;30340;52.004;5.908;2022-10-31T07:37:53;9.60;;;6.95;;
42036;SDS011;30340;52.004;5.908;2022-10-31T07:40:19;9.15;;;7.05;;
42036;SDS011;30340;52.004;5.908;2022-10-31T07:42:46;11.23;;;8.98;;
42036;SDS011;30340;52.004;5.908;2022-10-31T07:45:14;12.30;;;8.65;;
42036;SDS011;30340;52.004;5.908;2022-10-31T07:47:44;10.13;;;6.70;;
42036;SDS011;30340;52.004;5.908;2022-10-31T07:50:18;10.05;;;7.82;;
42036;SDS011;30340;52.004;5.908;2022-10-31T07:52:45;13.60;;;9.00;;
42036;SDS011;30340;52.004;5.908;2022-10-31T07:55:11;9.27;;;7.10;;
42036;SDS011;30340;52.004;5.908;2022-10-31T07:57:37;11.55;;;8.52;;
42036;SDS011;30340;52.004;5.908;2022-10-31T08:00:06;13.05;;;8.20;;
42036;SDS011;30340;52.004;5.908;2022-10-31T08:02:33;12.50;;;8.68;;
42036;SDS011;30340;52.004;5.908;2022-10-31T08:04:59;14.68;;;10.52;;
42036;SDS011;30340;52.004;5.908;2022-10-31T08:07:26;10.38;;;7.70;;
42036;SDS011;30340;52.004;5.908;2022-10-31T08:09:53;12.77;;;8.45;;
42036;SDS011;30340;52.004;5.908;2022-10-31T08:12:19;12.52;;;8.20;;
42036;SDS011;30340;52.004;5.908;2022-10-31T08:14:45;11.50;;;8.07;;
42036;SDS011;30340;52.004;5.908;2022-10-31T08:17:10;13.77;;;10.15;;
42036;SDS011;30340;52.004;5.908;2022-10-31T08:19:36;11.23;;;8.38;;
42036;SDS011;30340;52.004;5.908;2022-10-31T08:22:02;17.02;;;11.40;;
42036;SDS011;30340;52.004;5.908;2022-10-31T08:24:27;15.13;;;10.88;;
42036;SDS011;30340;52.004;5.908;2022-10-31T08:26:53;17.33;;;13.07;;
42036;SDS011;30340;52.004;5.908;2022-10-31T08:29:19;18.65;;;13.40;;
42036;SDS011;30340;52.004;5.908;2022-10-31T08:31:44;14.98;;;11.77;;
42036;SDS011;30340;52.004;5.908;2022-10-31T08:34:10;17.90;;;13.35;;
42036;SDS011;30340;52.004;5.908;2022-10-31T08:36:35;13.68;;;9.27;;
42036;SDS011;30340;52.004;5.908;2022-10-31T08:39:01;17.35;;;12.73;;
42036;SDS011;30340;52.004;5.908;2022-10-31T08:41:26;15.25;;;10.55;;
42036;SDS011;30340;52.004;5.908;2022-10-31T08:43:52;18.63;;;12.13;;
42036;SDS011;30340;52.004;5.908;2022-10-31T08:46:18;16.73;;;12.35;;
42036;SDS011;30340;52.004;5.908;2022-10-31T08:48:43;15.30;;;10.55;;
42036;SDS011;30340;52.004;5.908;2022-10-31T08:51:09;15.93;;;9.75;;
42036;SDS011;30340;52.004;5.908;2022-10-31T08:53:35;12.02;;;8.73;;
42036;SDS011;30340;52.004;5.908;2022-10-31T08:56:03;9.95;;;7.40;;
42036;SDS011;30340;52.004;5.908;2022-10-31T08:58:29;14.65;;;10.98;;
42036;SDS011;30340;52.004;5.908;2022-10-31T09:00:55;12.80;;;8.88;;
42036;SDS011;30340;52.004;5.908;2022-10-31T09:03:22;12.05;;;8.65;;
42036;SDS011;30340;52.004;5.908;2022-10-31T09:05:49;14.75;;;10.73;;
42036;SDS011;30340;52.004;5.908;2022-10-31T09:08:16;12.77;;;9.32;;
42036;SDS011;30340;52.004;5.908;2022-10-31T09:10:42;12.77;;;8.70;;
42036;SDS011;30340;52.004;5.908;2022-10-31T09:13:12;12.40;;;9.00;;
42036;SDS011;30340;52.004;5.908;2022-10-31T09:15:40;10.07;;;7.60;;
42036;SDS011;30340;52.004;5.908;2022-10-31T09:18:08;14.45;;;10.65;;
42036;SDS011;30340;52.004;5.908;2022-10-31T09:20:35;11.63;;;7.75;;
42036;SDS011;30340;52.004;5.908;2022-10-31T09:23:03;11.35;;;8.02;;
42036;SDS011;30340;52.004;5.908;2022-10-31T09:25:34;24.98;;;17.77;;
42036;SDS011;30340;52.004;5.908;2022-10-31T09:28:00;21.33;;;15.30;;
42036;SDS011;30340;52.004;5.908;2022-10-31T09:30:29;21.33;;;14.88;;
42036;SDS011;30340;52.004;5.908;2022-10-31T09:33:00;17.63;;;13.48;;
42036;SDS011;30340;52.004;5.908;2022-10-31T09:35:27;16.80;;;12.95;;
42036;SDS011;30340;52.004;5.908;2022-10-31T09:37:56;15.93;;;12.13;;
42036;SDS011;30340;52.004;5.908;2022-10-31T09:40:35;23.85;;;16.42;;
42036;SDS011;30340;52.004;5.908;2022-10-31T09:43:06;20.15;;;15.38;;
42036;SDS011;30340;52.004;5.908;2022-10-31T09:46:13;18.38;;;13.60;;
42036;SDS011;30340;52.004;5.908;2022-10-31T09:53:59;17.70;;;12.55;;
42036;SDS011;30340;52.004;5.908;2022-10-31T09:56:28;14.82;;;11.38;;
42036;SDS011;30340;52.004;5.908;2022-10-31T09:58:56;15.23;;;12.13;;
42036;SDS011;30340;52.004;5.908;2022-10-31T10:04:05;18.15;;;13.48;;
42036;SDS011;30340;52.004;5.908;2022-10-31T10:06:54;18.25;;;12.30;;
42036;SDS011;30340;52.004;5.908;2022-10-31T10:09:21;17.48;;;13.45;;
42036;SDS011;30340;52.004;5.908;2022-10-31T10:22:43;17.83;;;12.40;;
42036;SDS011;30340;52.004;5.908;2022-10-31T10:33:05;24.35;;;17.10;;
42036;SDS011;30340;52.004;5.908;2022-10-31T10:38:14;17.65;;;13.65;;
42036;SDS011;30340;52.004;5.908;2022-10-31T10:40:41;19.60;;;13.35;;
42036;SDS011;30340;52.004;5.908;2022-10-31T10:46:34;18.27;;;13.55;;
42036;SDS011;30340;52.004;5.908;2022-10-31T10:49:24;23.45;;;15.43;;
42036;SDS011;30340;52.004;5.908;2022-10-31T10:57:10;20.15;;;13.60;;
42036;SDS011;30340;52.004;5.908;2022-10-31T10:59:45;22.92;;;16.45;;
42036;SDS011;30340;52.004;5.908;2022-10-31T11:02:24;22.48;;;15.55;;
42036;SDS011;30340;52.004;5.908;2022-10-31T11:04:53;23.15;;;14.75;;
42036;SDS011;30340;52.004;5.908;2022-10-31T11:07:22;19.50;;;15.07;;
42036;SDS011;30340;52.004;5.908;2022-10-31T11:09:47;24.77;;;17.40;;
42036;SDS011;30340;52.004;5.908;2022-10-31T11:12:26;22.20;;;13.85;;
42036;SDS011;30340;52.004;5.908;2022-10-31T11:15:00;22.58;;;15.77;;
42036;SDS011;30340;52.004;5.908;2022-10-31T11:17:33;29.45;;;18.17;;
42036;SDS011;30340;52.004;5.908;2022-10-31T11:22:42;20.30;;;13.20;;
42036;SDS011;30340;52.004;5.908;2022-10-31T11:25:22;22.73;;;15.70;;
42036;SDS011;30340;52.004;5.908;2022-10-31T11:28:02;25.38;;;17.83;;
42036;SDS011;30340;52.004;5.908;2022-10-31T11:30:29;30.30;;;19.25;;
42036;SDS011;30340;52.004;5.908;2022-10-31T11:33:00;26.73;;;18.52;;
42036;SDS011;30340;52.004;5.908;2022-10-31T11:35:25;26.13;;;16.35;;
42036;SDS011;30340;52.004;5.908;2022-10-31T11:37:54;25.33;;;16.83;;
42036;SDS011;30340;52.004;5.908;2022-10-31T11:40:24;26.80;;;17.95;;
42036;SDS011;30340;52.004;5.908;2022-10-31T11:42:51;30.25;;;19.77;;
42036;SDS011;30340;52.004;5.908;2022-10-31T11:47:49;25.65;;;17.38;;
42036;SDS011;30340;52.004;5.908;2022-10-31T11:50:23;24.70;;;15.63;;
42036;SDS011;30340;52.004;5.908;2022-10-31T11:52:56;27.25;;;18.52;;
42036;SDS011;30340;52.004;5.908;2022-10-31T11:55:32;30.17;;;19.55;;
42036;SDS011;30340;52.004;5.908;2022-10-31T11:57:59;27.80;;;17.73;;
42036;SDS011;30340;52.004;5.908;2022-10-31T12:00:26;30.13;;;20.17;;
42036;SDS011;30340;52.004;5.908;2022-10-31T12:03:15;28.27;;;19.55;;
42036;SDS011;30340;52.004;5.908;2022-10-31T12:05:55;26.30;;;16.25;;
42036;SDS011;30340;52.004;5.908;2022-10-31T12:08:57;22.05;;;13.90;;
42036;SDS011;30340;52.004;5.908;2022-10-31T12:14:14;28.27;;;16.75;;
42036;SDS011;30340;52.004;5.908;2022-10-31T12:24:45;26.83;;;17.88;;
42036;SDS011;30340;52.004;5.908;2022-10-31T12:38:26;24.08;;;17.15;;
42036;SDS011;30340;52.004;5.908;2022-10-31T12:46:24;33.17;;;20.63;;
42036;SDS011;30340;52.004;5.908;2022-10-31T12:49:50;32.90;;;21.55;;
42036;SDS011;30340;52.004;5.908;2022-10-31T13:00:27;30.40;;;18.55;;
42036;SDS011;30340;52.004;5.908;2022-10-31T13:02:55;29.35;;;20.08;;
42036;SDS011;30340;52.004;5.908;2022-10-31T13:05:40;29.77;;;20.10;;
42036;SDS011;30340;52.004;5.908;2022-10-31T13:08:18;34.10;;;21.50;;
42036;SDS011;30340;52.004;5.908;2022-10-31T13:11:09;37.53;;;23.48;;
42036;SDS011;30340;52.004;5.908;2022-10-31T13:16:40;30.23;;;18.17;;
42036;SDS011;30340;52.004;5.908;2022-10-31T13:19:19;29.45;;;18.63;;
42036;SDS011;30340;52.004;5.908;2022-10-31T13:21:51;30.38;;;18.20;;
42036;SDS011;30340;52.004;5.908;2022-10-31T13:24:35;30.80;;;18.25;;
42036;SDS011;30340;52.004;5.908;2022-10-31T13:27:24;28.92;;;18.00;;
42036;SDS011;30340;52.004;5.908;2022-10-31T13:32:39;26.35;;;16.25;;
42036;SDS011;30340;52.004;5.908;2022-10-31T13:38:01;30.95;;;17.52;;
42036;SDS011;30340;52.004;5.908;2022-10-31T13:40:39;26.50;;;18.35;;
42036;SDS011;30340;52.004;5.908;2022-10-31T13:45:52;24.90;;;14.18;;
42036;SDS011;30340;52.004;5.908;2022-10-31T13:51:06;29.10;;;18.75;;
42036;SDS011;30340;52.004;5.908;2022-10-31T13:53:35;26.52;;;17.27;;
42036;SDS011;30340;52.004;5.908;2022-10-31T13:58:35;29.85;;;17.75;;
42036;SDS011;30340;52.004;5.908;2022-10-31T14:03:39;23.83;;;14.90;;
42036;SDS011;30340;52.004;5.908;2022-10-31T14:06:07;21.58;;;13.25;;
42036;SDS011;30340;52.004;5.908;2022-10-31T14:08:35;38.45;;;18.55;;
42036;SDS011;30340;52.004;5.908;2022-10-31T14:11:08;29.38;;;18.42;;
42036;SDS011;30340;52.004;5.908;2022-10-31T14:13:44;24.45;;;15.73;;
42036;SDS011;30340;52.004;5.908;2022-10-31T14:21:48;28.65;;;16.58;;
42036;SDS011;30340;52.004;5.908;2022-10-31T14:24:36;21.85;;;13.38;;
42036;SDS011;30340;52.004;5.908;2022-10-31T14:27:03;24.20;;;15.88;;
42036;SDS011;30340;52.004;5.908;2022-10-31T14:29:29;26.58;;;17.85;;
42036;SDS011;30340;52.004;5.908;2022-10-31T14:34:42;24.45;;;14.77;;
42036;SDS011;30340;52.004;5.908;2022-10-31T14:50:48;30.88;;;18.38;;
42036;SDS011;30340;52.004;5.908;2022-10-31T14:53:28;26.15;;;15.15;;
42036;SDS011;30340;52.004;5.908;2022-10-31T14:55:57;29.05;;;17.77;;
42036;SDS011;30340;52.004;5.908;2022-10-31T14:58:44;25.02;;;16.42;;
42036;SDS011;30340;52.004;5.908;2022-10-31T15:01:26;27.27;;;16.17;;
42036;SDS011;30340;52.004;5.908;2022-10-31T15:03:57;25.77;;;14.75;;
42036;SDS011;30340;52.004;5.908;2022-10-31T15:06:44;24.75;;;14.30;;
42036;SDS011;30340;52.004;5.908;2022-10-31T15:09:23;21.80;;;13.15;;
42036;SDS011;30340;52.004;5.908;2022-10-31T15:11:53;23.70;;;15.65;;
42036;SDS011;30340;52.004;5.908;2022-10-31T15:14:25;27.42;;;15.30;;
42036;SDS011;30340;52.004;5.908;2022-10-31T15:17:01;25.63;;;16.85;;
42036;SDS011;30340;52.004;5.908;2022-10-31T15:19:29;27.48;;;16.27;;
42036;SDS011;30340;52.004;5.908;2022-10-31T15:21:57;35.50;;;17.33;;
42036;SDS011;30340;52.004;5.908;2022-10-31T15:24:24;31.52;;;18.17;;
42036;SDS011;30340;52.004;5.908;2022-10-31T15:26:57;26.92;;;16.33;;
42036;SDS011;30340;52.004;5.908;2022-10-31T15:29:24;24.85;;;17.23;;
42036;SDS011;30340;52.004;5.908;2022-10-31T15:31:54;24.65;;;15.95;;
42036;SDS011;30340;52.004;5.908;2022-10-31T15:34:37;23.95;;;16.25;;
42036;SDS011;30340;52.004;5.908;2022-10-31T15:37:05;23.83;;;14.23;;
42036;SDS011;30340;52.004;5.908;2022-10-31T15:39:39;25.08;;;16.80;;
42036;SDS011;30340;52.004;5.908;2022-10-31T15:42:14;26.58;;;16.42;;
42036;SDS011;30340;52.004;5.908;2022-10-31T15:44:46;24.90;;;16.55;;
42036;SDS011;30340;52.004;5.908;2022-10-31T15:47:17;23.98;;;13.90;;
42036;SDS011;30340;52.004;5.908;2022-10-31T15:49:50;28.58;;;16.98;;
42036;SDS011;30340;52.004;5.908;2022-10-31T15:52:37;25.17;;;17.45;;
42036;SDS011;30340;52.004;5.908;2022-10-31T15:57:33;27.42;;;17.48;;
42036;SDS011;30340;52.004;5.908;2022-10-31T16:00:04;26.75;;;16.05;;
42036;SDS011;30340;52.004;5.908;2022-10-31T16:02:30;29.45;;;16.70;;
42036;SDS011;30340;52.004;5.908;2022-10-31T16:04:57;32.05;;;19.15;;
42036;SDS011;30340;52.004;5.908;2022-10-31T16:07:25;25.13;;;16.80;;
42036;SDS011;30340;52.004;5.908;2022-10-31T16:12:21;26.67;;;17.98;;
42036;SDS011;30340;52.004;5.908;2022-10-31T16:14:49;22.55;;;15.20;;
42036;SDS011;30340;52.004;5.908;2022-10-31T16:17:19;29.25;;;17.60;;
42036;SDS011;30340;52.004;5.908;2022-10-31T16:22:23;26.25;;;15.68;;
42036;SDS011;30340;52.004;5.908;2022-10-31T16:27:31;28.15;;;17.65;;
42036;SDS011;30340;52.004;5.908;2022-10-31T16:29:59;29.88;;;18.60;;
42036;SDS011;30340;52.004;5.908;2022-10-31T16:32:36;31.35;;;16.50;;
42036;SDS011;30340;52.004;5.908;2022-10-31T16:35:19;27.08;;;17.60;;
42036;SDS011;30340;52.004;5.908;2022-10-31T16:37:48;27.90;;;16.77;;
42036;SDS011;30340;52.004;5.908;2022-10-31T16:40:14;28.63;;;17.92;;
42036;SDS011;30340;52.004;5.908;2022-10-31T16:42:41;29.65;;;16.48;;
42036;SDS011;30340;52.004;5.908;2022-10-31T16:45:07;22.48;;;15.35;;
42036;SDS011;30340;52.004;5.908;2022-10-31T16:47:40;24.98;;;16.80;;
42036;SDS011;30340;52.004;5.908;2022-10-31T16:50:10;26.15;;;15.73;;
42036;SDS011;30340;52.004;5.908;2022-10-31T16:52:38;26.45;;;16.85;;
42036;SDS011;30340;52.004;5.908;2022-10-31T16:55:04;27.40;;;17.67;;
42036;SDS011;30340;52.004;5.908;2022-10-31T16:57:30;26.80;;;14.48;;
42036;SDS011;30340;52.004;5.908;2022-10-31T16:59:56;24.70;;;17.33;;
42036;SDS011;30340;52.004;5.908;2022-10-31T17:02:22;26.88;;;17.88;;
42036;SDS011;30340;52.004;5.908;2022-10-31T17:04:48;31.77;;;19.15;;
42036;SDS011;30340;52.004;5.908;2022-10-31T17:07:13;25.48;;;16.58;;
42036;SDS011;30340;52.004;5.908;2022-10-31T17:09:39;25.13;;;16.00;;
42036;SDS011;30340;52.004;5.908;2022-10-31T17:12:05;28.15;;;18.75;;
42036;SDS011;30340;52.004;5.908;2022-10-31T17:14:38;33.10;;;20.48;;
42036;SDS011;30340;52.004;5.908;2022-10-31T17:17:04;26.10;;;15.85;;
42036;SDS011;30340;52.004;5.908;2022-10-31T17:19:29;25.95;;;17.45;;
42036;SDS011;30340;52.004;5.908;2022-10-31T17:21:55;28.92;;;18.38;;